createdAt,value
2017-08-07T00:01:48.758Z,74.00
2017-08-07T00:04:17.109Z,74.60
2017-08-07T00:06:45.544Z,74.00
2017-08-07T00:09:13.903Z,74.60
2017-08-07T00:11:42.253Z,74.50
2017-08-07T00:14:10.607Z,74.00
2017-08-07T00:16:39.041Z,74.50
2017-08-07T00:19:07.397Z,74.00
2017-08-07T00:21:36.062Z,73.40
2017-08-07T00:24:04.426Z,73.90
2017-08-07T00:26:32.897Z,74.80
2017-08-07T00:29:01.243Z,74.30
2017-08-07T00:31:30.572Z,73.80
2017-08-07T00:33:58.925Z,73.70
2017-08-07T00:36:27.286Z,73.60
2017-08-07T00:38:55.650Z,73.10
2017-08-07T00:41:24.000Z,73.40
2017-08-07T00:43:52.556Z,73.00
2017-08-07T00:46:20.889Z,73.10
2017-08-07T00:48:50.226Z,73.40
2017-08-07T00:51:18.581Z,73.30
2017-08-07T00:53:46.932Z,72.70
2017-08-07T00:56:16.086Z,71.90
2017-08-07T00:58:44.425Z,71.90
2017-08-07T01:01:12.778Z,72.80
2017-08-07T01:03:41.138Z,73.30
2017-08-07T01:06:09.500Z,73.10
2017-08-07T01:08:37.855Z,73.30
2017-08-07T01:11:06.209Z,73.00
2017-08-07T01:13:34.565Z,73.20
2017-08-07T01:16:03.705Z,73.70
2017-08-07T01:18:32.045Z,73.70
2017-08-07T01:21:00.443Z,73.30
2017-08-07T01:23:28.935Z,73.40
2017-08-07T01:25:57.298Z,72.20
2017-08-07T01:28:25.651Z,73.00
2017-08-07T01:30:54.014Z,73.30
2017-08-07T01:33:22.369Z,73.20
2017-08-07T01:35:50.723Z,73.70
2017-08-07T01:38:19.074Z,73.40
2017-08-07T01:40:47.450Z,73.20
2017-08-07T01:43:15.796Z,74.00
2017-08-07T01:45:44.149Z,74.00
2017-08-07T01:48:12.691Z,74.00
2017-08-07T01:50:40.694Z,74.20
2017-08-07T01:53:09.064Z,74.40
2017-08-07T01:55:37.427Z,74.30
2017-08-07T01:58:05.785Z,73.50
2017-08-07T02:00:34.150Z,73.40
2017-08-07T02:03:02.153Z,73.30
2017-08-07T02:05:29.827Z,72.60
2017-08-07T02:08:01.183Z,73.30
2017-08-07T02:10:30.306Z,73.00
2017-08-07T02:12:58.678Z,73.00
2017-08-07T02:15:27.027Z,72.30
2017-08-07T02:17:55.383Z,73.20
2017-08-07T02:20:23.741Z,73.00
2017-08-07T02:22:52.097Z,72.50
2017-08-07T02:25:20.688Z,72.10
2017-08-07T02:27:49.049Z,71.70
2017-08-07T02:30:17.397Z,72.10
2017-08-07T02:32:45.768Z,72.30
2017-08-07T02:35:14.122Z,72.30
2017-08-07T02:37:42.481Z,71.10
2017-08-07T02:40:10.845Z,71.70
2017-08-07T02:42:39.530Z,71.20
2017-08-07T02:45:08.089Z,71.30
2017-08-07T02:47:36.436Z,71.40
2017-08-07T02:50:04.798Z,71.00
2017-08-07T02:52:33.919Z,70.70
2017-08-07T02:55:02.266Z,71.10
2017-08-07T02:57:30.619Z,70.90
2017-08-07T02:59:58.981Z,70.60
2017-08-07T03:02:27.344Z,71.20
2017-08-07T03:04:55.717Z,71.40
2017-08-07T03:07:24.087Z,71.20
2017-08-07T03:09:52.652Z,71.30
2017-08-07T03:12:20.999Z,70.80
2017-08-07T03:14:49.361Z,71.50
2017-08-07T03:17:17.721Z,71.00
2017-08-07T03:19:46.074Z,71.60
2017-08-07T03:22:14.446Z,71.00
2017-08-07T03:24:42.795Z,71.00
2017-08-07T03:27:11.154Z,71.00
2017-08-07T03:29:39.507Z,71.20
2017-08-07T03:32:07.876Z,71.20
2017-08-07T03:34:36.224Z,70.80
2017-08-07T03:37:04.587Z,71.00
2017-08-07T03:39:33.122Z,71.20
2017-08-07T03:42:01.480Z,71.60
2017-08-07T03:44:29.841Z,70.80
2017-08-07T03:46:58.186Z,70.80
2017-08-07T03:49:26.554Z,70.80
2017-08-07T03:51:55.023Z,70.70
2017-08-07T03:54:23.411Z,70.70
2017-08-07T03:56:51.761Z,70.60
2017-08-07T03:59:20.109Z,70.80
2017-08-07T04:01:48.470Z,71.60
2017-08-07T04:04:16.838Z,71.80
2017-08-07T04:06:45.253Z,71.40
2017-08-07T04:09:13.606Z,71.00
2017-08-07T04:11:42.022Z,70.90
2017-08-07T04:14:10.378Z,70.90
2017-08-07T04:16:38.762Z,70.70
2017-08-07T04:19:07.109Z,70.50
2017-08-07T04:21:35.475Z,70.20
2017-08-07T04:24:03.843Z,70.00
2017-08-07T04:26:32.251Z,70.80
2017-08-07T04:29:00.632Z,71.70
2017-08-07T04:31:28.978Z,71.30
2017-08-07T04:33:57.321Z,71.20
2017-08-07T04:36:25.690Z,70.80
2017-08-07T04:38:54.125Z,70.20
2017-08-07T04:41:22.492Z,70.70
2017-08-07T04:43:50.843Z,70.40
2017-08-07T04:46:19.202Z,70.30
2017-08-07T04:48:47.558Z,70.80
2017-08-07T04:51:16.813Z,69.80
2017-08-07T04:53:45.177Z,69.90
2017-08-07T04:56:13.551Z,69.10
2017-08-07T04:58:42.027Z,70.00
2017-08-07T05:01:10.411Z,69.90
2017-08-07T05:03:38.088Z,70.60
2017-08-07T05:06:06.452Z,70.80
2017-08-07T05:08:34.916Z,69.80
2017-08-07T05:11:03.263Z,68.90
2017-08-07T05:13:32.381Z,69.90
2017-08-07T05:16:00.737Z,69.90
2017-08-07T05:18:29.085Z,70.20
2017-08-07T05:20:57.464Z,68.70
2017-08-07T05:23:25.822Z,68.50
2017-08-07T05:25:54.165Z,68.20
2017-08-07T05:28:22.523Z,68.60
2017-08-07T05:30:50.871Z,69.30
2017-08-07T05:33:19.239Z,67.70
2017-08-07T05:35:47.591Z,66.90
2017-08-07T05:38:15.954Z,67.10
2017-08-07T05:40:44.827Z,67.80
2017-08-07T05:43:13.169Z,68.20
2017-08-07T05:45:42.299Z,67.60
2017-08-07T05:48:10.706Z,67.60
2017-08-07T05:50:39.069Z,67.50
2017-08-07T05:53:07.431Z,68.40
2017-08-07T05:55:35.773Z,68.20
2017-08-07T05:58:04.281Z,66.50
2017-08-07T06:00:32.650Z,66.40
2017-08-07T06:03:01.137Z,66.50
2017-08-07T06:05:29.520Z,66.80
2017-08-07T06:07:57.944Z,67.10
2017-08-07T06:10:26.313Z,66.80
2017-08-07T06:12:54.880Z,67.30
2017-08-07T06:15:23.234Z,66.70
2017-08-07T06:17:51.866Z,67.60
2017-08-07T06:20:20.219Z,67.80
2017-08-07T06:22:48.578Z,66.20
2017-08-07T06:25:16.938Z,66.90
2017-08-07T06:27:45.495Z,66.50
2017-08-07T06:30:13.934Z,65.90
2017-08-07T06:32:42.288Z,66.20
2017-08-07T06:35:10.650Z,66.40
2017-08-07T06:37:39.000Z,66.00
2017-08-07T06:40:12.940Z,66.80
2017-08-07T06:42:41.312Z,67.00
2017-08-07T06:45:09.678Z,67.30
2017-08-07T06:47:38.353Z,66.90
2017-08-07T06:50:07.009Z,66.30
2017-08-07T06:52:36.328Z,66.10
2017-08-07T06:55:04.705Z,66.10
2017-08-07T06:57:33.073Z,67.80
2017-08-07T07:00:01.440Z,67.20
2017-08-07T07:02:29.907Z,66.90
2017-08-07T07:04:58.257Z,67.20
2017-08-07T07:07:26.629Z,66.20
2017-08-07T07:09:54.995Z,67.00
2017-08-07T07:12:23.369Z,67.30
2017-08-07T07:14:52.430Z,66.00
2017-08-07T07:17:20.779Z,65.80
2017-08-07T07:19:49.136Z,67.60
2017-08-07T07:22:17.482Z,66.30
2017-08-07T07:24:45.850Z,66.00
2017-08-07T07:27:14.210Z,66.00
2017-08-07T07:29:42.562Z,64.50
2017-08-07T07:32:10.935Z,64.00
2017-08-07T07:34:39.462Z,64.50
2017-08-07T07:37:07.844Z,63.70
2017-08-07T07:39:36.290Z,62.70
2017-08-07T07:42:04.853Z,64.30
2017-08-07T07:44:33.328Z,64.30
2017-08-07T07:47:01.695Z,63.70
2017-08-07T07:49:30.822Z,63.00
2017-08-07T07:51:58.985Z,62.90
2017-08-07T07:54:27.346Z,63.00
2017-08-07T07:56:55.695Z,63.50
2017-08-07T07:59:24.049Z,64.70
2017-08-07T08:01:52.403Z,60.40
2017-08-07T08:04:20.971Z,59.20
2017-08-07T08:06:49.313Z,58.80
2017-08-07T08:09:18.251Z,59.40
2017-08-07T08:11:46.712Z,59.40
2017-08-07T08:14:15.045Z,59.70
2017-08-07T08:16:44.386Z,58.60
2017-08-07T08:19:12.722Z,58.60
2017-08-07T08:21:41.844Z,60.10
2017-08-07T08:24:10.203Z,60.00
2017-08-07T08:26:38.604Z,61.10
2017-08-07T08:29:06.954Z,58.60
2017-08-07T08:31:35.308Z,61.40
2017-08-07T08:34:03.666Z,59.00
2017-08-07T08:43:14.829Z,58.40
2017-08-07T08:45:43.197Z,57.70
2017-08-07T08:48:12.244Z,58.70
2017-08-07T08:50:40.602Z,59.20
2017-08-07T08:53:08.965Z,56.90
2017-08-07T08:55:37.354Z,58.30
2017-08-07T08:58:05.715Z,58.30
2017-08-07T09:00:34.210Z,56.60
2017-08-07T09:03:02.669Z,57.50
2017-08-07T09:05:30.694Z,56.50
2017-08-07T09:08:00.037Z,55.40
2017-08-07T09:10:29.005Z,55.60
2017-08-07T09:12:58.140Z,54.50
2017-08-07T09:15:26.514Z,54.40
2017-08-07T09:17:55.080Z,53.30
2017-08-07T09:20:23.418Z,52.30
2017-08-07T09:22:52.580Z,50.80
2017-08-07T09:25:21.014Z,50.70
2017-08-07T09:27:49.365Z,51.70
2017-08-07T09:30:17.727Z,50.80
2017-08-07T09:32:46.252Z,51.10
2017-08-07T09:35:14.703Z,49.30
2017-08-07T09:37:43.050Z,48.50
2017-08-07T09:40:11.418Z,48.40
2017-08-07T09:42:39.761Z,48.00
2017-08-07T09:45:08.202Z,48.20
2017-08-07T09:47:36.557Z,47.50
2017-08-07T09:50:05.181Z,47.90
2017-08-07T09:52:33.517Z,47.00
2017-08-07T09:55:02.662Z,49.80
2017-08-07T09:57:31.051Z,49.10
2017-08-07T09:59:59.615Z,46.60
2017-08-07T10:02:27.992Z,48.20
2017-08-07T10:04:56.514Z,47.60
2017-08-07T10:07:24.865Z,47.00
2017-08-07T10:09:53.223Z,46.80
2017-08-07T10:12:21.599Z,46.70
2017-08-07T10:14:49.947Z,46.80
2017-08-07T10:17:18.305Z,46.20
2017-08-07T10:19:46.779Z,45.70
2017-08-07T10:22:15.923Z,46.20
2017-08-07T10:24:44.286Z,45.60
2017-08-07T10:27:12.733Z,47.00
2017-08-07T10:29:42.841Z,46.50
2017-08-07T10:32:10.490Z,46.70
2017-08-07T10:34:39.031Z,47.90
2017-08-07T10:37:07.399Z,44.70
2017-08-07T10:39:35.860Z,46.10
2017-08-07T10:42:04.852Z,43.00
2017-08-07T10:47:54.679Z,43.00
2017-08-07T10:53:44.014Z,41.90
2017-08-07T10:56:12.374Z,42.60
2017-08-07T10:58:40.715Z,42.00
2017-08-07T11:07:51.338Z,43.90
2017-08-07T11:10:19.689Z,43.20
2017-08-07T11:12:48.055Z,42.30
2017-08-07T11:15:16.406Z,43.50
2017-08-07T11:17:44.762Z,42.40
2017-08-07T11:20:13.282Z,42.90
2017-08-07T11:22:41.627Z,43.30
2017-08-07T11:25:12.599Z,42.30
2017-08-07T11:28:20.280Z,42.20
2017-08-07T11:30:48.636Z,42.60
2017-08-07T11:33:17.002Z,41.60
2017-08-07T11:35:45.342Z,39.60
2017-08-07T11:38:13.698Z,39.80
2017-08-07T11:40:42.376Z,39.20
2017-08-07T11:43:10.723Z,40.40
2017-08-07T11:45:40.047Z,40.60
2017-08-07T11:48:08.425Z,40.60
2017-08-07T11:50:36.772Z,39.10
2017-08-07T11:53:05.894Z,42.40
2017-08-07T11:55:34.255Z,42.40
2017-08-07T11:58:02.615Z,40.00
2017-08-07T12:00:30.977Z,40.40
2017-08-07T12:02:59.330Z,41.20
2017-08-07T12:05:27.687Z,38.30
2017-08-07T12:07:56.051Z,39.20
2017-08-07T12:10:24.406Z,39.20
2017-08-07T12:12:52.750Z,38.50
2017-08-07T12:15:21.875Z,39.90
2017-08-07T12:17:50.222Z,39.90
2017-08-07T12:20:18.578Z,40.40
2017-08-07T12:22:46.935Z,39.00
2017-08-07T12:25:15.300Z,39.00
2017-08-07T12:27:43.669Z,38.90
2017-08-07T12:30:12.006Z,39.20
2017-08-07T12:32:41.341Z,39.90
2017-08-07T12:35:09.705Z,39.90
2017-08-07T12:37:38.062Z,40.70
2017-08-07T12:40:07.391Z,38.50
2017-08-07T12:42:35.738Z,38.40
2017-08-07T12:45:04.863Z,39.80
2017-08-07T12:47:33.429Z,39.80
2017-08-07T12:50:01.788Z,38.70
2017-08-07T12:52:31.115Z,39.20
2017-08-07T12:54:59.450Z,39.20
2017-08-07T12:57:28.562Z,39.20
2017-08-07T12:59:56.919Z,39.10
2017-08-07T13:02:25.275Z,37.90
2017-08-07T13:04:53.653Z,37.70
2017-08-07T13:07:22.290Z,40.50
2017-08-07T13:09:50.646Z,39.50
2017-08-07T13:12:18.993Z,37.80
2017-08-07T13:14:48.329Z,39.70
2017-08-07T13:17:16.667Z,39.60
2017-08-07T13:19:45.791Z,39.80
2017-08-07T13:22:14.167Z,39.30
2017-08-07T13:24:42.971Z,38.10
2017-08-07T13:27:11.313Z,38.80
2017-08-07T13:29:39.674Z,37.60
2017-08-07T13:32:08.710Z,37.40
2017-08-07T13:34:37.075Z,39.30
2017-08-07T13:37:05.414Z,38.10
2017-08-07T13:39:33.941Z,37.80
2017-08-07T13:42:02.283Z,37.30
2017-08-07T13:44:31.617Z,37.50
2017-08-07T13:46:59.957Z,37.50
2017-08-07T13:49:29.070Z,36.80
2017-08-07T13:51:57.417Z,36.80
2017-08-07T13:54:25.732Z,37.50
2017-08-07T13:56:54.072Z,37.70
2017-08-07T13:59:23.404Z,37.50
2017-08-07T14:01:51.780Z,37.50
2017-08-07T14:04:20.121Z,38.00
2017-08-07T14:06:49.166Z,37.80
2017-08-07T14:09:17.580Z,37.50
2017-08-07T14:11:45.925Z,36.30
2017-08-07T14:14:14.274Z,36.90
2017-08-07T14:16:42.651Z,37.30
2017-08-07T14:19:11.008Z,37.10
2017-08-07T14:21:39.359Z,38.40
2017-08-07T14:24:08.490Z,38.60
2017-08-07T14:26:36.836Z,38.30
2017-08-07T14:29:05.183Z,37.20
2017-08-07T14:31:33.538Z,36.80
2017-08-07T14:34:01.882Z,38.40
2017-08-07T14:36:30.538Z,36.60
2017-08-07T14:38:58.886Z,36.00
2017-08-07T14:41:27.251Z,36.50
2017-08-07T14:43:55.599Z,36.40
2017-08-07T14:46:23.951Z,36.70
2017-08-07T14:48:52.310Z,37.50
2017-08-07T14:51:20.667Z,37.30
2017-08-07T14:53:49.014Z,37.90
2017-08-07T14:56:17.384Z,37.50
2017-08-07T14:58:45.725Z,36.50
2017-08-07T15:01:14.081Z,36.30
2017-08-07T15:03:42.433Z,35.70
2017-08-07T15:06:10.787Z,36.00
2017-08-07T15:08:39.138Z,36.40
2017-08-07T15:11:07.579Z,35.40
2017-08-07T15:13:35.935Z,35.80
2017-08-07T15:16:04.287Z,36.40
2017-08-07T15:18:32.634Z,38.40
2017-08-07T15:21:00.995Z,35.00
2017-08-07T15:23:29.415Z,37.30
2017-08-07T15:25:57.764Z,37.10
2017-08-07T15:28:26.901Z,36.70
2017-08-07T15:30:55.264Z,36.60
2017-08-07T15:33:23.614Z,39.10
2017-08-07T15:35:51.962Z,37.80
2017-08-07T15:38:20.318Z,35.60
2017-08-07T15:40:48.694Z,36.60
2017-08-07T15:43:17.042Z,36.10
2017-08-07T15:45:45.415Z,37.00
2017-08-07T15:48:13.771Z,35.90
2017-08-07T15:50:42.125Z,35.60
2017-08-07T15:53:11.234Z,35.90
2017-08-07T15:55:39.586Z,35.60
2017-08-07T15:58:08.212Z,35.00
2017-08-07T16:00:36.642Z,36.80
2017-08-07T16:03:05.003Z,37.30
2017-08-07T16:05:33.362Z,38.80
2017-08-07T16:08:01.727Z,37.00
2017-08-07T16:10:30.070Z,37.00
2017-08-07T16:12:58.536Z,36.40
2017-08-07T16:15:26.884Z,36.00
2017-08-07T16:17:55.237Z,37.00
2017-08-07T16:20:23.596Z,36.90
2017-08-07T16:22:52.073Z,37.50
2017-08-07T16:25:20.426Z,37.20
2017-08-07T16:27:48.780Z,37.70
2017-08-07T16:30:34.484Z,37.90
2017-08-07T16:33:03.523Z,38.00
2017-08-07T16:35:31.975Z,36.80
2017-08-07T16:38:00.320Z,37.50
2017-08-07T16:40:29.434Z,37.20
2017-08-07T16:42:57.795Z,37.20
2017-08-07T16:45:26.149Z,37.50
2017-08-07T16:47:54.525Z,37.30
2017-08-07T16:50:22.523Z,38.90
2017-08-07T16:52:50.963Z,37.90
2017-08-07T16:55:19.313Z,38.50
2017-08-07T16:57:47.674Z,39.10
2017-08-07T17:00:16.040Z,39.00
2017-08-07T17:02:44.473Z,39.10
2017-08-07T17:05:13.035Z,39.30
2017-08-07T17:07:41.385Z,39.60
2017-08-07T17:10:09.727Z,39.30
2017-08-07T17:12:39.539Z,38.50
2017-08-07T17:15:07.890Z,38.50
2017-08-07T17:17:36.252Z,38.10
2017-08-07T17:20:04.315Z,38.10
2017-08-07T17:22:32.671Z,38.00
2017-08-07T17:25:01.026Z,37.90
2017-08-07T17:27:29.604Z,37.90
2017-08-07T17:29:57.986Z,38.10
2017-08-07T17:32:26.329Z,39.60
2017-08-07T17:34:55.378Z,40.20
2017-08-07T17:37:23.738Z,41.60
2017-08-07T17:39:52.158Z,41.50
2017-08-07T17:42:20.507Z,40.90
2017-08-07T17:44:48.867Z,41.40
2017-08-07T17:47:17.281Z,42.00
2017-08-07T17:49:45.643Z,42.10
2017-08-07T17:52:14.004Z,41.00
2017-08-07T17:54:42.360Z,41.50
2017-08-07T17:57:11.252Z,41.40
2017-08-07T17:59:39.606Z,41.90
2017-08-07T18:02:07.970Z,41.90
2017-08-07T18:04:36.475Z,41.40
2017-08-07T18:07:04.826Z,41.80
2017-08-07T18:09:33.179Z,41.60
2017-08-07T18:12:02.133Z,41.90
2017-08-07T18:14:30.494Z,42.00
2017-08-07T18:16:58.850Z,41.40
2017-08-07T18:19:27.216Z,41.50
2017-08-07T18:21:56.255Z,41.90
2017-08-07T18:24:24.623Z,42.00
2017-08-07T18:26:53.086Z,41.90
2017-08-07T18:29:21.530Z,42.60
2017-08-07T18:31:49.903Z,42.60
2017-08-07T18:34:18.260Z,42.20
2017-08-07T18:36:46.615Z,42.50
2017-08-07T18:39:14.973Z,42.90
2017-08-07T18:41:43.352Z,42.80
2017-08-07T18:44:11.943Z,43.50
2017-08-07T18:46:40.308Z,43.60
2017-08-07T18:49:08.653Z,44.40
2017-08-07T18:51:37.023Z,44.20
2017-08-07T18:54:06.070Z,44.70
2017-08-07T18:56:34.446Z,44.50
2017-08-07T18:59:02.812Z,44.70
2017-08-07T19:01:31.175Z,45.00
2017-08-07T19:03:59.524Z,45.30
2017-08-07T19:06:27.918Z,45.60
2017-08-07T19:08:56.269Z,46.20
2017-08-07T19:11:24.671Z,46.10
2017-08-07T19:13:53.023Z,46.10
2017-08-07T19:16:21.372Z,46.30
2017-08-07T19:18:49.752Z,46.80
2017-08-07T19:21:18.101Z,47.20
2017-08-07T19:23:46.654Z,47.90
2017-08-07T19:26:14.990Z,47.60
2017-08-07T19:28:44.125Z,47.80
2017-08-07T19:31:12.475Z,47.70
2017-08-07T19:33:40.872Z,48.10
2017-08-07T19:36:09.247Z,49.00
2017-08-07T19:38:37.590Z,48.80
2017-08-07T19:41:05.999Z,49.50
2017-08-07T19:43:34.580Z,49.00
2017-08-07T19:46:02.963Z,49.20
2017-08-07T19:48:31.341Z,49.20
2017-08-07T19:50:59.724Z,49.20
2017-08-07T19:53:28.392Z,50.00
2017-08-07T19:55:56.733Z,49.90
2017-08-07T19:58:25.204Z,49.50
2017-08-07T20:00:53.659Z,49.70
2017-08-07T20:03:22.016Z,50.10
2017-08-07T20:05:51.068Z,49.70
2017-08-07T20:08:19.448Z,49.50
2017-08-07T20:10:47.957Z,49.40
2017-08-07T20:13:16.340Z,49.90
2017-08-07T20:15:44.711Z,49.70
2017-08-07T20:18:13.075Z,50.00
2017-08-07T20:20:41.452Z,49.80
2017-08-07T20:23:09.829Z,50.30
2017-08-07T20:25:38.192Z,50.40
2017-08-07T20:28:06.574Z,51.70
2017-08-07T20:30:35.231Z,51.20
2017-08-07T20:33:04.371Z,51.80
2017-08-07T20:35:32.731Z,51.80
2017-08-07T20:38:01.304Z,51.90
2017-08-07T20:40:29.666Z,52.20
2017-08-07T20:42:58.046Z,52.70
2017-08-07T20:45:26.402Z,52.40
2017-08-07T20:47:55.735Z,52.80
2017-08-07T20:50:24.109Z,52.80
2017-08-07T20:52:53.133Z,52.40
2017-08-07T20:55:21.777Z,52.20
2017-08-07T20:57:50.165Z,52.70
2017-08-07T21:00:18.186Z,52.00
2017-08-07T21:02:47.299Z,52.90
2017-08-07T21:05:16.439Z,53.20
2017-08-07T21:07:46.529Z,53.10
2017-08-07T21:10:15.115Z,52.50
2017-08-07T21:12:43.472Z,53.60
2017-08-07T21:15:11.919Z,53.60
2017-08-07T21:17:40.302Z,52.10
2017-08-07T21:20:08.659Z,52.20
2017-08-07T21:22:37.011Z,52.80
2017-08-07T21:25:05.362Z,53.10
2017-08-07T21:27:33.724Z,53.00
2017-08-07T21:30:02.096Z,53.70
2017-08-07T21:32:30.453Z,53.90
2017-08-07T21:34:59.786Z,53.20
2017-08-07T21:37:28.161Z,53.10
2017-08-07T21:39:56.802Z,53.70
2017-08-07T21:42:25.147Z,54.80
2017-08-07T21:44:53.493Z,53.50
2017-08-07T21:47:21.852Z,54.10
2017-08-07T21:49:50.210Z,54.60
2017-08-07T21:52:18.725Z,54.30
2017-08-07T21:54:47.087Z,54.20
2017-08-07T21:57:15.540Z,54.70
2017-08-07T21:59:43.902Z,54.60
2017-08-07T22:02:12.267Z,54.90
2017-08-07T22:04:40.618Z,55.00
2017-08-07T22:07:09.042Z,55.20
2017-08-07T22:09:37.663Z,55.50
2017-08-07T22:12:06.039Z,55.50
2017-08-07T22:14:34.387Z,55.90
2017-08-07T22:17:03.507Z,56.70
2017-08-07T22:19:31.860Z,56.90
2017-08-07T22:22:00.224Z,56.80
2017-08-07T22:24:28.583Z,56.80
2017-08-07T22:26:56.942Z,57.60
2017-08-07T22:29:25.589Z,57.60
2017-08-07T22:31:53.944Z,57.80
2017-08-07T22:34:22.291Z,58.40
2017-08-07T22:36:50.720Z,58.50
2017-08-07T22:39:19.154Z,58.80
2017-08-07T22:41:47.516Z,59.20
2017-08-07T22:44:15.877Z,59.50
2017-08-07T22:46:44.222Z,59.50
2017-08-07T22:49:13.319Z,60.30
2017-08-07T22:51:41.690Z,59.30
2017-08-07T22:54:10.067Z,60.10
2017-08-07T22:56:38.431Z,59.70
2017-08-07T22:59:06.804Z,60.20
2017-08-07T23:01:35.156Z,60.70
2017-08-07T23:04:03.507Z,61.00
2017-08-07T23:06:31.869Z,60.50
2017-08-07T23:09:00.444Z,60.90
2017-08-07T23:11:28.798Z,61.80
2017-08-07T23:13:57.156Z,61.70
2017-08-07T23:16:25.511Z,62.10
2017-08-07T23:18:54.027Z,63.20
2017-08-07T23:21:22.377Z,62.50
2017-08-07T23:23:50.780Z,63.10
2017-08-07T23:26:19.142Z,63.30
2017-08-07T23:28:47.583Z,63.50
2017-08-07T23:31:16.155Z,63.60
2017-08-07T23:33:44.506Z,63.80
2017-08-07T23:36:12.864Z,64.20
2017-08-07T23:38:41.346Z,64.60
2017-08-07T23:41:09.722Z,64.90
2017-08-07T23:43:38.074Z,64.50
2017-08-07T23:46:06.439Z,64.80
2017-08-07T23:48:35.566Z,65.70
2017-08-07T23:51:04.128Z,65.70
2017-08-07T23:53:45.723Z,65.00
2017-08-07T23:56:41.242Z,65.40
